N26237 EYVI-EVRA
Flight info
| Callsign | N26237 |
|---|---|
| Flight time | 1h 22m |
| Altitude | 10000 |
| Route | EYVI/01 LAFA1A LAFAT DCT ERIVA ERIV2R EVRA/18 |
| Aircraft | AA5/L-VGDW/C |
Departure
| Time | 2026-04-30 17:41 |
|---|---|
| Airport | Vilnius International Airport (EYVI) |
Arrival
| Time | 2026-04-30 19:04 |
|---|---|
| Airport | Riga International Airport (EVRA) |
| Time | Latitude | Longitude | Altitude | Speed | Heading |
|---|---|---|---|---|---|
| 2026-04-30 17:39 | 54.90897 | 25.30689 | 5933 ft | 96 kts | 347° |
| 2026-04-30 17:41 | 54.96155 | 25.29861 | 5959 ft | 100 kts | 354° |
| 2026-04-30 17:42 | 54.97571 | 25.29641 | 5927 ft | 103 kts | 356° |
| 2026-04-30 17:42 | 54.99629 | 25.28944 | 5960 ft | 99 kts | 342° |
| 2026-04-30 17:43 | 55.00966 | 25.28464 | 5952 ft | 98 kts | 352° |
| 2026-04-30 17:44 | 55.03044 | 25.28256 | 5962 ft | 102 kts | 354° |
| 2026-04-30 17:44 | 55.05248 | 25.27832 | 5937 ft | 104 kts | 359° |
| 2026-04-30 17:46 | 55.08645 | 25.27573 | 5991 ft | 96 kts | 356° |
| 2026-04-30 17:47 | 55.11341 | 25.26851 | 5911 ft | 101 kts | 353° |
| 2026-04-30 17:48 | 55.14023 | 25.26546 | 5876 ft | 97 kts | 358° |
| 2026-04-30 17:48 | 55.16130 | 25.26823 | 5846 ft | 106 kts | 6° |
| 2026-04-30 17:49 | 55.18943 | 25.27047 | 5957 ft | 103 kts | 350° |
| 2026-04-30 17:50 | 55.21827 | 25.26309 | 5951 ft | 106 kts | 351° |
| 2026-04-30 17:51 | 55.24053 | 25.25891 | 5916 ft | 106 kts | 356° |
| 2026-04-30 17:52 | 55.24937 | 25.25912 | 5904 ft | 105 kts | 2° |
| 2026-04-30 17:53 | 55.28451 | 25.24910 | 5876 ft | 107 kts | 341° |
| 2026-04-30 17:54 | 55.31359 | 25.24239 | 5935 ft | 100 kts | 355° |
| 2026-04-30 17:55 | 55.32223 | 25.24065 | 5932 ft | 104 kts | 349° |
| 2026-04-30 17:56 | 55.34636 | 25.23147 | 5946 ft | 106 kts | 346° |
| 2026-04-30 17:57 | 55.36818 | 25.22481 | 5935 ft | 105 kts | 352° |
| 2026-04-30 17:58 | 55.39015 | 25.22477 | 5925 ft | 108 kts | 2° |
| 2026-04-30 17:59 | 55.41904 | 25.21698 | 5975 ft | 102 kts | 343° |
| 2026-04-30 18:00 | 55.44623 | 25.20330 | 6075 ft | 100 kts | 341° |
| 2026-04-30 18:00 | 55.46519 | 25.18792 | 6140 ft | 100 kts | 334° |
| 2026-04-30 18:01 | 55.47696 | 25.17476 | 6220 ft | 100 kts | 329° |
| 2026-04-30 18:02 | 55.49405 | 25.15030 | 6199 ft | 101 kts | 323° |
| 2026-04-30 18:02 | 55.50966 | 25.12380 | 6214 ft | 106 kts | 320° |
| 2026-04-30 18:03 | 55.52492 | 25.09372 | 6069 ft | 116 kts | 315° |
| 2026-04-30 18:04 | 55.54409 | 25.07566 | 5606 ft | 120 kts | 15° |
| 2026-04-30 18:05 | 55.56158 | 25.12039 | 5508 ft | 106 kts | 15° |
| 2026-04-30 18:06 | 55.58905 | 25.11143 | 5509 ft | 105 kts | 339° |
| 2026-04-30 18:07 | 55.61701 | 25.09861 | 5510 ft | 103 kts | 348° |
| 2026-04-30 18:08 | 55.63649 | 25.09218 | 5832 ft | 89 kts | 348° |
| 2026-04-30 18:09 | 55.66335 | 25.08256 | 5972 ft | 109 kts | 348° |
| 2026-04-30 18:10 | 55.69313 | 25.07184 | 5901 ft | 102 kts | 348° |
| 2026-04-30 18:11 | 55.71996 | 25.06221 | 5896 ft | 97 kts | 348° |
| 2026-04-30 18:11 | 55.73990 | 25.05507 | 5894 ft | 97 kts | 348° |
| 2026-04-30 18:12 | 55.75989 | 25.04788 | 5888 ft | 98 kts | 348° |
| 2026-04-30 18:13 | 55.77317 | 25.04310 | 5889 ft | 98 kts | 348° |
| 2026-04-30 18:13 | 55.79100 | 25.03673 | 5880 ft | 98 kts | 348° |
| 2026-04-30 18:14 | 55.80663 | 25.03118 | 5880 ft | 98 kts | 348° |
| 2026-04-30 18:15 | 55.82676 | 25.02403 | 5879 ft | 99 kts | 348° |
| 2026-04-30 18:15 | 55.84688 | 25.01684 | 5878 ft | 99 kts | 348° |
| 2026-04-30 18:16 | 55.86036 | 25.01210 | 5879 ft | 99 kts | 348° |
| 2026-04-30 18:16 | 55.87382 | 25.00633 | 5869 ft | 100 kts | 338° |
| 2026-04-30 18:17 | 55.88018 | 25.00101 | 5868 ft | 101 kts | 337° |
| 2026-04-30 18:17 | 55.88658 | 24.99565 | 5868 ft | 102 kts | 337° |
| 2026-04-30 18:17 | 55.89826 | 24.98160 | 5874 ft | 91 kts | 328° |
| 2026-04-30 18:18 | 55.90263 | 24.97573 | 5863 ft | 72 kts | 328° |
| 2026-04-30 18:18 | 55.90633 | 24.97057 | 5853 ft | 64 kts | 328° |
| 2026-04-30 18:18 | 55.90971 | 24.96574 | 5845 ft | 60 kts | 328° |
| 2026-04-30 18:18 | 55.91300 | 24.96102 | 5839 ft | 67 kts | 328° |
| 2026-04-30 18:19 | 55.91590 | 24.95706 | 5852 ft | 87 kts | 328° |
| 2026-04-30 18:19 | 55.92128 | 24.95008 | 5866 ft | 99 kts | 328° |
| 2026-04-30 18:19 | 55.92684 | 24.94296 | 5868 ft | 100 kts | 328° |
| 2026-04-30 18:19 | 55.93267 | 24.93567 | 5871 ft | 102 kts | 328° |
| 2026-04-30 18:20 | 55.93841 | 24.92851 | 5872 ft | 102 kts | 328° |
| 2026-04-30 18:20 | 55.94426 | 24.92121 | 5872 ft | 103 kts | 328° |
| 2026-04-30 18:20 | 55.95016 | 24.91386 | 5873 ft | 104 kts | 328° |
| 2026-04-30 18:20 | 55.95559 | 24.90541 | 5882 ft | 107 kts | 307° |
| 2026-04-30 18:21 | 55.95944 | 24.89407 | 5878 ft | 105 kts | 316° |
| 2026-04-30 18:21 | 55.96506 | 24.88627 | 5870 ft | 101 kts | 338° |
| 2026-04-30 18:21 | 55.97154 | 24.88132 | 5870 ft | 101 kts | 339° |
| 2026-04-30 18:21 | 55.97808 | 24.87673 | 5870 ft | 101 kts | 340° |
| 2026-04-30 18:22 | 55.98465 | 24.87237 | 5871 ft | 100 kts | 341° |
| 2026-04-30 18:22 | 55.99773 | 24.86400 | 5871 ft | 101 kts | 341° |
| 2026-04-30 18:22 | 56.00436 | 24.85983 | 5871 ft | 101 kts | 341° |
| 2026-04-30 18:23 | 56.01099 | 24.85569 | 5870 ft | 101 kts | 341° |
| 2026-04-30 18:23 | 56.01763 | 24.85153 | 5870 ft | 101 kts | 342° |
| 2026-04-30 18:23 | 56.02422 | 24.84741 | 5870 ft | 101 kts | 342° |
| 2026-04-30 18:23 | 56.03085 | 24.84327 | 5869 ft | 101 kts | 341° |
| 2026-04-30 18:24 | 56.04415 | 24.83495 | 5866 ft | 101 kts | 341° |
| 2026-04-30 18:24 | 56.05082 | 24.83079 | 5865 ft | 102 kts | 341° |
| 2026-04-30 18:24 | 56.05751 | 24.82660 | 5868 ft | 102 kts | 341° |
| 2026-04-30 18:25 | 56.06423 | 24.82239 | 5870 ft | 102 kts | 341° |
| 2026-04-30 18:25 | 56.07770 | 24.81396 | 5864 ft | 103 kts | 341° |
| 2026-04-30 18:25 | 56.08437 | 24.80978 | 5863 ft | 103 kts | 341° |
| 2026-04-30 18:26 | 56.09788 | 24.80131 | 5866 ft | 103 kts | 341° |
| 2026-04-30 18:26 | 56.10468 | 24.79704 | 5865 ft | 103 kts | 341° |
| 2026-04-30 18:26 | 56.11148 | 24.79278 | 5870 ft | 103 kts | 342° |
| 2026-04-30 18:27 | 56.12472 | 24.78447 | 5903 ft | 102 kts | 342° |
| 2026-04-30 18:27 | 56.13142 | 24.78026 | 5903 ft | 102 kts | 342° |
| 2026-04-30 18:28 | 56.14497 | 24.77174 | 5902 ft | 104 kts | 341° |
| 2026-04-30 18:28 | 56.15181 | 24.76744 | 5894 ft | 104 kts | 341° |
| 2026-04-30 18:28 | 56.16552 | 24.75882 | 5896 ft | 105 kts | 341° |
| 2026-04-30 18:29 | 56.17239 | 24.75448 | 5901 ft | 104 kts | 341° |
| 2026-04-30 18:29 | 56.19303 | 24.74149 | 5894 ft | 105 kts | 342° |
| 2026-04-30 18:30 | 56.20684 | 24.73278 | 5880 ft | 105 kts | 341° |
| 2026-04-30 18:30 | 56.22049 | 24.72417 | 5877 ft | 104 kts | 342° |
| 2026-04-30 18:31 | 56.22734 | 24.71983 | 5883 ft | 104 kts | 342° |
| 2026-04-30 18:31 | 56.24107 | 24.71116 | 5884 ft | 104 kts | 342° |
| 2026-04-30 18:32 | 56.25462 | 24.70260 | 5883 ft | 103 kts | 341° |
| 2026-04-30 18:32 | 56.26137 | 24.69833 | 5883 ft | 103 kts | 341° |
| 2026-04-30 18:32 | 56.27492 | 24.68976 | 5881 ft | 104 kts | 342° |
| 2026-04-30 18:33 | 56.28176 | 24.68542 | 5881 ft | 104 kts | 342° |
| 2026-04-30 18:33 | 56.29546 | 24.67673 | 5880 ft | 104 kts | 341° |
| 2026-04-30 18:33 | 56.30223 | 24.67244 | 5880 ft | 105 kts | 341° |
| 2026-04-30 18:34 | 56.30911 | 24.66808 | 5874 ft | 105 kts | 341° |
| 2026-04-30 18:34 | 56.32285 | 24.65936 | 5876 ft | 105 kts | 341° |
| 2026-04-30 18:34 | 56.32972 | 24.65500 | 5875 ft | 105 kts | 341° |
| 2026-04-30 18:35 | 56.33659 | 24.65064 | 5871 ft | 105 kts | 341° |
| 2026-04-30 18:35 | 56.34350 | 24.64625 | 5867 ft | 105 kts | 341° |
| 2026-04-30 18:35 | 56.35032 | 24.64191 | 5870 ft | 105 kts | 341° |
| 2026-04-30 18:36 | 56.36408 | 24.63316 | 5874 ft | 105 kts | 342° |
| 2026-04-30 18:36 | 56.37083 | 24.62818 | 5882 ft | 105 kts | 332° |
| 2026-04-30 18:36 | 56.38351 | 24.61479 | 5880 ft | 106 kts | 333° |
| 2026-04-30 18:37 | 56.38989 | 24.60813 | 5878 ft | 106 kts | 333° |
| 2026-04-30 18:37 | 56.39627 | 24.60146 | 5877 ft | 106 kts | 333° |
| 2026-04-30 18:37 | 56.40263 | 24.59480 | 5870 ft | 106 kts | 333° |
| 2026-04-30 18:37 | 56.40901 | 24.58812 | 5872 ft | 106 kts | 333° |
| 2026-04-30 18:38 | 56.41538 | 24.58145 | 5876 ft | 106 kts | 333° |
| 2026-04-30 18:38 | 56.42178 | 24.57475 | 5875 ft | 106 kts | 333° |
| 2026-04-30 18:38 | 56.42816 | 24.56806 | 5874 ft | 106 kts | 333° |
| 2026-04-30 18:38 | 56.43446 | 24.56146 | 5874 ft | 106 kts | 333° |
| 2026-04-30 18:39 | 56.44084 | 24.55476 | 5871 ft | 106 kts | 333° |
| 2026-04-30 18:39 | 56.44724 | 24.54806 | 5871 ft | 106 kts | 333° |
| 2026-04-30 18:39 | 56.45389 | 24.54252 | 5864 ft | 105 kts | 339° |
| 2026-04-30 18:39 | 56.46058 | 24.53723 | 5867 ft | 105 kts | 338° |
| 2026-04-30 18:40 | 56.46731 | 24.53193 | 5868 ft | 105 kts | 338° |
| 2026-04-30 18:40 | 56.47403 | 24.52666 | 5867 ft | 105 kts | 339° |
| 2026-04-30 18:40 | 56.48074 | 24.52139 | 5867 ft | 105 kts | 339° |
| 2026-04-30 18:40 | 56.48747 | 24.51612 | 5867 ft | 105 kts | 339° |
| 2026-04-30 18:41 | 56.49421 | 24.51085 | 5874 ft | 105 kts | 338° |
| 2026-04-30 18:41 | 56.50086 | 24.50564 | 5872 ft | 105 kts | 338° |
| 2026-04-30 18:41 | 56.50759 | 24.50037 | 5873 ft | 105 kts | 338° |
| 2026-04-30 18:41 | 56.51432 | 24.49510 | 5872 ft | 105 kts | 338° |
| 2026-04-30 18:42 | 56.52104 | 24.48984 | 5870 ft | 105 kts | 338° |
| 2026-04-30 18:42 | 56.53451 | 24.47927 | 5869 ft | 105 kts | 338° |
| 2026-04-30 18:42 | 56.54125 | 24.47399 | 5869 ft | 105 kts | 339° |
| 2026-04-30 18:45 | 56.60855 | 24.42681 | 4509 ft | 104 kts | 348° |
| 2026-04-30 18:45 | 56.61571 | 24.42443 | 4337 ft | 105 kts | 348° |
| 2026-04-30 18:45 | 56.62292 | 24.42217 | 4150 ft | 105 kts | 348° |
| 2026-04-30 18:46 | 56.63016 | 24.41997 | 3972 ft | 106 kts | 348° |
| 2026-04-30 18:46 | 56.63747 | 24.41783 | 3792 ft | 107 kts | 348° |
| 2026-04-30 18:46 | 56.64484 | 24.41576 | 3611 ft | 108 kts | 348° |
| 2026-04-30 18:46 | 56.65223 | 24.41374 | 3437 ft | 109 kts | 348° |
| 2026-04-30 18:47 | 56.65977 | 24.41171 | 3254 ft | 109 kts | 348° |
| 2026-04-30 18:47 | 56.66732 | 24.40970 | 3064 ft | 110 kts | 348° |
| 2026-04-30 18:47 | 56.67489 | 24.40775 | 2888 ft | 110 kts | 348° |
| 2026-04-30 18:47 | 56.68239 | 24.40590 | 2742 ft | 108 kts | 348° |
| 2026-04-30 18:48 | 56.68953 | 24.40425 | 2739 ft | 99 kts | 348° |
| 2026-04-30 18:48 | 56.69625 | 24.40274 | 2735 ft | 95 kts | 348° |
| 2026-04-30 18:48 | 56.70272 | 24.40132 | 2731 ft | 92 kts | 348° |
| 2026-04-30 18:48 | 56.70901 | 24.39996 | 2724 ft | 91 kts | 348° |
| 2026-04-30 18:49 | 56.71547 | 24.39851 | 2673 ft | 97 kts | 348° |
| 2026-04-30 18:49 | 56.72220 | 24.39603 | 2623 ft | 100 kts | 343° |
| 2026-04-30 18:49 | 56.72907 | 24.39309 | 2571 ft | 102 kts | 343° |
| 2026-04-30 18:49 | 56.73593 | 24.39013 | 2538 ft | 103 kts | 343° |
| 2026-04-30 18:50 | 56.74289 | 24.38704 | 2497 ft | 103 kts | 343° |
| 2026-04-30 18:50 | 56.74983 | 24.38379 | 2459 ft | 103 kts | 341° |
| 2026-04-30 18:50 | 56.75676 | 24.38018 | 2395 ft | 104 kts | 340° |
| 2026-04-30 18:50 | 56.76356 | 24.37637 | 2341 ft | 101 kts | 339° |
| 2026-04-30 18:51 | 56.77016 | 24.37238 | 2296 ft | 99 kts | 336° |
| 2026-04-30 18:51 | 56.77661 | 24.36721 | 2228 ft | 99 kts | 331° |
| 2026-04-30 18:51 | 56.78266 | 24.36132 | 2189 ft | 98 kts | 329° |
| 2026-04-30 18:51 | 56.78848 | 24.35536 | 2159 ft | 96 kts | 329° |
| 2026-04-30 18:52 | 56.79432 | 24.34919 | 2116 ft | 99 kts | 328° |
| 2026-04-30 18:52 | 56.80022 | 24.34263 | 2105 ft | 99 kts | 327° |
| 2026-04-30 18:52 | 56.80622 | 24.33573 | 2036 ft | 103 kts | 325° |
| 2026-04-30 18:52 | 56.81199 | 24.32820 | 2015 ft | 102 kts | 323° |
| 2026-04-30 18:53 | 56.81752 | 24.32049 | 2012 ft | 96 kts | 322° |
| 2026-04-30 18:53 | 56.82274 | 24.31338 | 1860 ft | 94 kts | 323° |
| 2026-04-30 18:53 | 56.82799 | 24.30624 | 1705 ft | 95 kts | 323° |
| 2026-04-30 18:53 | 56.83333 | 24.29897 | 1577 ft | 96 kts | 323° |
| 2026-04-30 18:54 | 56.83858 | 24.29166 | 1493 ft | 93 kts | 321° |
| 2026-04-30 18:54 | 56.84371 | 24.28400 | 1457 ft | 98 kts | 321° |
| 2026-04-30 18:54 | 56.84896 | 24.27578 | 1429 ft | 101 kts | 319° |
| 2026-04-30 18:54 | 56.85406 | 24.26689 | 1425 ft | 101 kts | 316° |
| 2026-04-30 18:55 | 56.85900 | 24.25781 | 1431 ft | 100 kts | 316° |
| 2026-04-30 18:55 | 56.86841 | 24.23923 | 1458 ft | 99 kts | 314° |
| 2026-04-30 18:55 | 56.87287 | 24.22992 | 1475 ft | 98 kts | 313° |
| 2026-04-30 18:56 | 56.87919 | 24.20772 | 1469 ft | 102 kts | 289° |
| 2026-04-30 18:56 | 56.87989 | 24.19473 | 1483 ft | 104 kts | 275° |
| 2026-04-30 18:56 | 56.87955 | 24.18173 | 1514 ft | 103 kts | 272° |
| 2026-04-30 18:57 | 56.87888 | 24.15534 | 1497 ft | 106 kts | 274° |
| 2026-04-30 18:57 | 56.87852 | 24.14170 | 1468 ft | 107 kts | 274° |
| 2026-04-30 18:57 | 56.87812 | 24.12830 | 1479 ft | 106 kts | 271° |
| 2026-04-30 18:58 | 56.87689 | 24.10229 | 1556 ft | 102 kts | 270° |
| 2026-04-30 18:58 | 56.87626 | 24.08917 | 1533 ft | 105 kts | 268° |
| 2026-04-30 18:58 | 56.87491 | 24.07589 | 1528 ft | 106 kts | 265° |
| 2026-04-30 18:59 | 56.87227 | 24.04993 | 1576 ft | 103 kts | 266° |
| 2026-04-30 19:00 | 56.86888 | 24.01272 | 1362 ft | 85 kts | 268° |
| 2026-04-30 19:00 | 56.86811 | 24.00265 | 1209 ft | 79 kts | 270° |
| 2026-04-30 19:00 | 56.86693 | 23.98305 | 1054 ft | 76 kts | 272° |
| 2026-04-30 19:01 | 56.86841 | 23.96514 | 1015 ft | 73 kts | 300° |
| 2026-04-30 19:01 | 56.87175 | 23.95860 | 1047 ft | 70 kts | 333° |
| 2026-04-30 19:02 | 56.88027 | 23.96249 | 703 ft | 63 kts | 17° |
| 2026-04-30 19:02 | 56.88905 | 23.96557 | 406 ft | 65 kts | 0° |
| 2026-04-30 19:03 | 56.89783 | 23.96693 | 240 ft | 66 kts | 1° |
| 2026-04-30 19:03 | 56.90657 | 23.96836 | 61 ft | 58 kts | 360° |
| 2026-04-30 19:04 | 56.91200 | 23.96925 | 39 ft | 14 kts | 7° |
| 2026-04-30 19:04 | 56.91248 | 23.96997 | 39 ft | 8 kts | 71° |
| 2026-04-30 19:05 | 56.91263 | 23.97104 | 38 ft | 0 kts | 72° |
| 2026-04-30 19:05 | 56.91264 | 23.97111 | 38 ft | 4 kts | 69° |
| 2026-04-30 19:06 | 56.91359 | 23.97335 | 38 ft | 16 kts | 33° |
| 2026-04-30 19:06 | 56.91459 | 23.97361 | 38 ft | 15 kts | 5° |
| 2026-04-30 19:06 | 56.91689 | 23.97398 | 38 ft | 18 kts | 5° |
| 2026-04-30 19:07 | 56.92012 | 23.97442 | 38 ft | 28 kts | 4° |
| 2026-04-30 19:07 | 56.92176 | 23.97468 | 38 ft | 23 kts | 4° |
| 2026-04-30 19:08 | 56.92540 | 23.97538 | 38 ft | 23 kts | 5° |
| 2026-04-30 19:08 | 56.92766 | 23.97575 | 38 ft | 13 kts | 5° |
| 2026-04-30 19:08 | 56.92863 | 23.97591 | 38 ft | 15 kts | 5° |
| 2026-04-30 19:09 | 56.92941 | 23.97757 | 38 ft | 14 kts | 95° |
| 2026-04-30 19:09 | 56.92931 | 23.97957 | 38 ft | 17 kts | 95° |
| 2026-04-30 19:09 | 56.92922 | 23.98184 | 38 ft | 15 kts | 68° |
| 2026-04-30 19:10 | 56.93056 | 23.98256 | 38 ft | 7 kts | 57° |
| 2026-04-30 19:10 | 56.93057 | 23.98401 | 38 ft | 0 kts | 94° |